createdAt,value
2018-07-22T00:00:10.890Z,19.42
2018-07-22T00:02:39.590Z,17.37
2018-07-22T00:05:08.464Z,18.48
2018-07-22T00:07:36.810Z,22.02
2018-07-22T00:10:05.650Z,19.45
2018-07-22T00:12:33.980Z,18.32
2018-07-22T00:15:02.278Z,19.05
2018-07-22T00:17:30.627Z,19.50
2018-07-22T00:19:58.939Z,22.73
2018-07-22T00:22:27.299Z,19.52
2018-07-22T00:24:55.596Z,21.30
2018-07-22T00:27:24.011Z,18.92
2018-07-22T00:29:52.347Z,19.05
2018-07-22T00:32:20.766Z,21.10
2018-07-22T00:34:49.250Z,22.60
2018-07-22T00:37:17.868Z,18.42
2018-07-22T00:39:46.258Z,18.20
2018-07-22T00:42:14.557Z,18.90
2018-07-22T00:44:42.865Z,19.20
2018-07-22T00:47:11.185Z,20.45
2018-07-22T00:49:39.468Z,19.05
2018-07-22T00:52:07.847Z,18.98
2018-07-22T00:54:36.206Z,27.20
2018-07-22T00:57:04.500Z,22.13
2018-07-22T00:59:32.850Z,25.92
2018-07-22T01:02:01.239Z,20.60
2018-07-22T01:04:29.615Z,25.62
2018-07-22T01:06:57.995Z,23.57
2018-07-22T01:09:26.398Z,22.45
2018-07-22T01:11:54.779Z,20.90
2018-07-22T01:14:23.095Z,21.87
2018-07-22T01:16:51.559Z,24.10
2018-07-22T01:19:19.976Z,25.30
2018-07-22T01:21:48.338Z,22.77
2018-07-22T01:24:16.609Z,23.83
2018-07-22T01:26:44.945Z,20.90
2018-07-22T01:29:13.333Z,24.37
2018-07-22T01:31:41.660Z,23.18
2018-07-22T01:34:09.969Z,20.88
2018-07-22T01:36:38.300Z,23.00
2018-07-22T01:39:07.999Z,23.52
2018-07-22T01:41:36.436Z,26.23
2018-07-22T01:44:05.036Z,23.12
2018-07-22T01:46:33.433Z,22.65
2018-07-22T01:49:01.992Z,25.95
2018-07-22T01:51:30.404Z,22.85
2018-07-22T01:53:58.708Z,26.82
2018-07-22T01:56:27.269Z,27.77
2018-07-22T01:58:55.633Z,27.42
2018-07-22T02:01:24.157Z,23.50
2018-07-22T02:03:52.517Z,23.32
2018-07-22T02:06:20.831Z,26.68
2018-07-22T02:08:49.171Z,21.80
2018-07-22T02:11:17.470Z,27.32
2018-07-22T02:13:45.823Z,26.80
2018-07-22T02:16:14.235Z,28.35
2018-07-22T02:18:42.576Z,28.27
2018-07-22T02:21:11.054Z,28.55
2018-07-22T02:23:39.396Z,26.95
2018-07-22T02:26:07.812Z,27.20
2018-07-22T02:28:36.320Z,24.40
2018-07-22T02:31:04.679Z,22.77
2018-07-22T02:33:33.153Z,24.30
2018-07-22T02:36:01.516Z,29.18
2018-07-22T02:38:29.861Z,32.08
2018-07-22T02:40:58.185Z,26.80
2018-07-22T02:43:26.488Z,26.00
2018-07-22T02:45:54.801Z,31.05
2018-07-22T02:48:23.163Z,22.55
2018-07-22T02:50:51.542Z,26.20
2018-07-22T02:53:19.869Z,22.82
2018-07-22T02:55:48.208Z,28.95
2018-07-22T02:58:16.605Z,30.88
2018-07-22T03:00:44.991Z,30.90
2018-07-22T03:03:13.499Z,28.15
2018-07-22T03:05:41.789Z,26.20
2018-07-22T03:08:09.836Z,27.62
2018-07-22T03:10:38.162Z,24.20
2018-07-22T03:13:06.487Z,29.45
2018-07-22T03:15:34.903Z,31.25
2018-07-22T03:18:03.247Z,26.82
2018-07-22T03:20:31.652Z,35.75
2018-07-22T03:22:59.968Z,36.95
2018-07-22T03:25:28.284Z,32.55
2018-07-22T03:27:56.654Z,33.20
2018-07-22T03:30:25.043Z,31.65
2018-07-22T03:32:53.414Z,30.00
2018-07-22T03:35:21.895Z,28.73
2018-07-22T03:37:50.331Z,29.37
2018-07-22T03:40:18.690Z,27.05
2018-07-22T03:42:47.049Z,35.13
2018-07-22T03:45:15.372Z,29.48
2018-07-22T03:47:43.736Z,29.25
2018-07-22T03:50:12.052Z,27.60
2018-07-22T03:52:40.341Z,30.97
2018-07-22T03:55:08.705Z,37.00
2018-07-22T03:57:37.055Z,30.48
2018-07-22T04:00:05.987Z,28.75
2018-07-22T04:02:34.382Z,32.23
2018-07-22T04:05:02.688Z,31.35
2018-07-22T04:07:31.036Z,31.57
2018-07-22T04:09:59.502Z,31.05
2018-07-22T04:12:27.874Z,26.12
2018-07-22T04:14:56.447Z,32.38
2018-07-22T04:17:24.811Z,28.52
2018-07-22T04:19:53.317Z,27.80
2018-07-22T04:22:21.650Z,27.85
2018-07-22T04:24:50.047Z,32.78
2018-07-22T04:27:18.497Z,28.05
2018-07-22T04:29:46.842Z,28.55
2018-07-22T04:32:15.172Z,29.45
2018-07-22T04:34:43.520Z,30.48
2018-07-22T04:37:11.835Z,31.55
2018-07-22T04:39:40.148Z,27.32
2018-07-22T04:42:08.543Z,27.20
2018-07-22T04:44:36.860Z,28.95
2018-07-22T04:47:05.287Z,32.25
2018-07-22T04:49:33.747Z,27.20
2018-07-22T04:52:02.440Z,26.37
2018-07-22T04:54:30.859Z,27.90
2018-07-22T04:56:59.243Z,29.63
2018-07-22T04:59:27.614Z,23.87
2018-07-22T05:01:55.931Z,28.87
2018-07-22T05:04:24.261Z,26.80
2018-07-22T05:06:52.585Z,30.48
2018-07-22T05:09:20.886Z,33.38
2018-07-22T05:11:49.243Z,31.20
2018-07-22T05:14:17.544Z,34.88
2018-07-22T05:16:45.874Z,29.77
2018-07-22T05:19:14.196Z,30.80
2018-07-22T05:21:42.511Z,27.07
2018-07-22T05:24:10.871Z,32.85
2018-07-22T05:26:39.227Z,30.10
2018-07-22T05:29:07.981Z,24.37
2018-07-22T05:31:36.400Z,34.67
2018-07-22T05:34:05.753Z,25.92
2018-07-22T05:36:34.349Z,27.10
2018-07-22T05:39:02.647Z,25.05
2018-07-22T05:41:31.340Z,25.43
2018-07-22T05:43:59.868Z,28.57
2018-07-22T05:46:28.211Z,31.50
2018-07-22T05:48:56.472Z,24.82
2018-07-22T05:51:24.789Z,30.40
2018-07-22T05:53:53.154Z,24.85
2018-07-22T05:56:21.471Z,26.00
2018-07-22T05:58:49.889Z,27.25
2018-07-22T06:01:18.180Z,23.87
2018-07-22T06:03:46.579Z,22.58
2018-07-22T06:06:15.027Z,29.05
2018-07-22T06:08:43.413Z,25.70
2018-07-22T06:11:11.808Z,34.58
2018-07-22T06:13:40.100Z,24.63
2018-07-22T06:16:08.544Z,22.13
2018-07-22T06:18:36.861Z,22.05
2018-07-22T06:21:05.263Z,31.35
2018-07-22T06:23:33.654Z,25.08
2018-07-22T06:26:02.007Z,24.63
2018-07-22T06:28:30.310Z,24.70
2018-07-22T06:30:58.661Z,27.27
2018-07-22T06:33:27.047Z,25.30
2018-07-22T06:35:55.368Z,25.48
2018-07-22T06:38:23.680Z,27.77
2018-07-22T06:40:51.987Z,21.33
2018-07-22T06:43:20.400Z,22.15
2018-07-22T06:45:48.775Z,22.58
2018-07-22T06:48:17.117Z,16.73
2018-07-22T06:50:45.452Z,22.30
2018-07-22T06:53:13.757Z,20.65
2018-07-22T06:55:42.194Z,23.57
2018-07-22T06:58:10.646Z,22.77
2018-07-22T07:00:39.000Z,19.25
2018-07-22T07:03:07.354Z,20.15
2018-07-22T07:05:35.685Z,19.87
2018-07-22T07:08:04.144Z,19.27
2018-07-22T07:10:32.486Z,25.60
2018-07-22T07:13:00.811Z,22.40
2018-07-22T07:15:29.154Z,16.48
2018-07-22T07:17:57.513Z,16.77
2018-07-22T07:20:25.875Z,18.00
2018-07-22T07:22:54.387Z,17.85
2018-07-22T07:25:22.734Z,19.23
2018-07-22T07:27:51.084Z,18.05
2018-07-22T07:30:19.422Z,17.17
2018-07-22T07:32:47.715Z,19.40
2018-07-22T07:35:16.066Z,14.47
2018-07-22T07:37:44.402Z,14.90
2018-07-22T07:40:12.827Z,18.07
2018-07-22T07:42:41.410Z,15.38
2018-07-22T07:45:09.773Z,15.88
2018-07-22T07:47:38.212Z,15.83
2018-07-22T07:50:06.512Z,14.85
2018-07-22T07:52:35.019Z,20.15
2018-07-22T07:55:03.365Z,20.65
2018-07-22T07:57:31.795Z,17.27
2018-07-22T08:00:00.226Z,15.40
2018-07-22T08:02:29.054Z,18.00
2018-07-22T08:04:57.448Z,18.25
2018-07-22T08:07:25.944Z,14.23
2018-07-22T08:09:54.274Z,17.17
2018-07-22T08:12:22.654Z,18.50
2018-07-22T08:14:50.945Z,18.45
2018-07-22T08:17:19.252Z,23.50
2018-07-22T08:19:47.549Z,11.48
2018-07-22T08:22:15.991Z,10.85
2018-07-22T08:24:44.292Z,10.50
2018-07-22T08:27:12.570Z,11.73
2018-07-22T08:29:40.879Z,15.13
2018-07-22T08:32:09.216Z,14.13
2018-07-22T08:34:37.656Z,9.95
2018-07-22T08:37:06.179Z,9.55
2018-07-22T08:39:34.628Z,11.65
2018-07-22T08:42:02.963Z,15.00
2018-07-22T08:44:31.378Z,12.70
2018-07-22T08:46:59.685Z,11.35
2018-07-22T08:49:27.963Z,9.75
2018-07-22T08:51:56.363Z,11.03
2018-07-22T08:54:24.680Z,7.00
2018-07-22T08:56:53.002Z,10.98
2018-07-22T08:59:21.291Z,11.20
2018-07-22T09:01:49.624Z,6.62
2018-07-22T09:04:17.983Z,7.37
2018-07-22T09:06:46.392Z,8.58
2018-07-22T09:09:15.064Z,9.73
2018-07-22T09:11:43.541Z,5.65
2018-07-22T09:14:11.947Z,5.85
2018-07-22T09:16:40.284Z,7.22
2018-07-22T09:19:08.735Z,10.20
2018-07-22T09:21:37.221Z,8.65
2018-07-22T09:24:05.521Z,15.30
2018-07-22T09:26:33.924Z,10.45
2018-07-22T09:29:02.234Z,9.78
2018-07-22T09:31:30.523Z,8.65
2018-07-22T09:33:58.812Z,6.03
2018-07-22T09:36:27.118Z,8.00
2018-07-22T09:38:55.519Z,8.85
2018-07-22T09:41:23.887Z,5.40
2018-07-22T09:43:52.301Z,6.78
2018-07-22T09:46:20.640Z,8.25
2018-07-22T09:48:49.084Z,6.37
2018-07-22T09:51:17.497Z,6.22
2018-07-22T09:53:46.144Z,5.65
2018-07-22T09:56:14.760Z,8.23
2018-07-22T09:58:43.253Z,5.28
2018-07-22T10:01:11.590Z,4.35
2018-07-22T10:03:40.102Z,9.25
2018-07-22T10:06:08.552Z,5.33
2018-07-22T10:08:36.966Z,5.05
2018-07-22T10:11:05.707Z,6.80
2018-07-22T10:13:34.147Z,5.97
2018-07-22T10:16:02.430Z,4.50
2018-07-22T10:18:30.810Z,6.28
2018-07-22T10:20:59.127Z,7.40
2018-07-22T10:23:27.592Z,5.47
2018-07-22T10:25:56.089Z,4.83
2018-07-22T10:28:24.543Z,4.00
2018-07-22T10:30:52.955Z,3.95
2018-07-22T10:33:21.257Z,4.70
2018-07-22T10:35:49.720Z,6.45
2018-07-22T10:38:18.202Z,4.67
2018-07-22T10:40:46.620Z,4.80
2018-07-22T10:43:15.067Z,4.95
2018-07-22T10:45:43.330Z,5.50
2018-07-22T10:48:11.766Z,5.00
2018-07-22T10:50:40.097Z,4.72
2018-07-22T10:53:08.457Z,4.97
2018-07-22T10:55:36.814Z,4.25
2018-07-22T10:58:05.231Z,5.05
2018-07-22T11:00:35.379Z,3.72
2018-07-22T11:03:05.293Z,4.30
2018-07-22T11:05:33.428Z,7.22
2018-07-22T11:08:01.895Z,8.13
2018-07-22T11:10:30.554Z,6.12
2018-07-22T11:12:59.209Z,5.42
2018-07-22T11:15:27.528Z,6.10
2018-07-22T11:17:55.840Z,5.37
2018-07-22T11:20:24.224Z,9.55
2018-07-22T11:22:52.686Z,5.33
2018-07-22T11:25:21.127Z,6.65
2018-07-22T11:27:49.508Z,5.50
2018-07-22T11:30:18.157Z,6.58
2018-07-22T11:32:46.483Z,5.37
2018-07-22T11:35:14.972Z,6.05
2018-07-22T11:37:43.347Z,5.03
2018-07-22T11:40:11.682Z,5.95
2018-07-22T11:42:40.058Z,8.95
2018-07-22T11:45:08.433Z,6.87
2018-07-22T11:47:37.028Z,8.85
2018-07-22T11:50:05.403Z,6.30
2018-07-22T11:52:34.357Z,4.62
2018-07-22T11:55:02.735Z,4.30
2018-07-22T11:57:31.023Z,12.95
2018-07-22T11:59:59.321Z,6.37
2018-07-22T12:02:27.645Z,5.95
2018-07-22T12:04:55.947Z,8.25
2018-07-22T12:07:24.326Z,5.67
2018-07-22T12:09:52.681Z,9.00
2018-07-22T12:12:21.097Z,5.33
2018-07-22T12:14:49.456Z,6.95
2018-07-22T12:17:17.965Z,5.95
2018-07-22T12:19:46.478Z,6.12
2018-07-22T12:22:14.841Z,7.10
2018-07-22T12:24:43.496Z,6.45
2018-07-22T12:27:11.872Z,5.08
2018-07-22T12:29:40.182Z,5.50
2018-07-22T12:32:08.538Z,7.37
2018-07-22T12:34:36.970Z,6.90
2018-07-22T12:37:05.327Z,5.05
2018-07-22T12:39:33.679Z,5.35
2018-07-22T12:42:02.029Z,8.10
2018-07-22T12:44:30.380Z,8.95
2018-07-22T12:46:58.762Z,6.53
2018-07-22T12:49:27.157Z,6.62
2018-07-22T12:51:55.494Z,6.80
2018-07-22T12:54:23.993Z,7.42
2018-07-22T12:56:52.468Z,7.53
2018-07-22T12:59:21.071Z,4.72
2018-07-22T13:01:49.780Z,5.35
2018-07-22T13:04:18.714Z,6.87
2018-07-22T13:06:48.380Z,7.25
2018-07-22T13:09:16.779Z,6.70
2018-07-22T13:11:45.192Z,5.67
2018-07-22T13:14:13.634Z,5.72
2018-07-22T13:16:41.664Z,8.53
2018-07-22T13:19:10.004Z,5.15
2018-07-22T13:21:38.311Z,7.35
2018-07-22T13:24:06.707Z,7.37
2018-07-22T13:26:35.005Z,7.25
2018-07-22T13:29:03.375Z,7.25
2018-07-22T13:31:31.762Z,5.35
2018-07-22T13:34:00.075Z,5.47
2018-07-22T13:36:28.672Z,8.90
2018-07-22T13:38:57.013Z,6.72
2018-07-22T13:41:25.564Z,6.58
2018-07-22T13:43:53.935Z,5.37
2018-07-22T13:46:22.230Z,6.92
2018-07-22T13:48:50.590Z,6.47
2018-07-22T13:51:18.955Z,5.28
2018-07-22T13:53:47.353Z,5.83
2018-07-22T13:56:15.687Z,4.30
2018-07-22T13:58:44.052Z,5.37
2018-07-22T14:01:12.147Z,9.88
2018-07-22T14:03:40.476Z,4.55
2018-07-22T14:06:08.835Z,4.22
2018-07-22T14:08:37.514Z,6.75
2018-07-22T14:11:05.860Z,5.10
2018-07-22T14:13:34.192Z,4.62
2018-07-22T14:16:02.584Z,6.20
2018-07-22T14:18:31.182Z,5.30
2018-07-22T14:20:59.512Z,4.20
2018-07-22T14:23:27.892Z,6.22
2018-07-22T14:25:56.272Z,5.87
2018-07-22T14:28:24.626Z,5.37
2018-07-22T14:30:52.936Z,5.37
2018-07-22T14:33:21.270Z,4.20
2018-07-22T14:35:49.613Z,4.90
2018-07-22T14:38:17.989Z,4.70
2018-07-22T14:40:46.337Z,6.12
2018-07-22T14:43:14.715Z,5.50
2018-07-22T14:45:43.084Z,9.30
2018-07-22T14:48:11.684Z,5.40
2018-07-22T14:50:40.159Z,4.53
2018-07-22T14:53:08.601Z,8.00
2018-07-22T14:55:37.166Z,5.40
2018-07-22T14:58:05.563Z,4.78
2018-07-22T15:00:34.063Z,4.40
2018-07-22T15:03:02.385Z,4.30
2018-07-22T15:05:30.875Z,5.28
2018-07-22T15:07:59.300Z,4.20
2018-07-22T15:10:27.611Z,6.95
2018-07-22T15:12:55.995Z,4.62
2018-07-22T15:15:24.389Z,6.00
2018-07-22T15:17:52.720Z,5.75
2018-07-22T15:20:21.205Z,5.50
2018-07-22T15:22:49.493Z,6.25
2018-07-22T15:25:17.884Z,7.95
2018-07-22T15:27:46.210Z,10.20
2018-07-22T15:30:14.660Z,7.03
2018-07-22T15:32:43.046Z,7.42
2018-07-22T15:35:12.051Z,8.18
2018-07-22T15:37:41.284Z,5.40
2018-07-22T15:40:09.575Z,5.92
2018-07-22T15:42:37.845Z,5.95
2018-07-22T15:45:06.148Z,5.85
2018-07-22T15:47:35.353Z,5.33
2018-07-22T15:50:03.706Z,6.95
2018-07-22T15:52:32.050Z,6.15
2018-07-22T15:55:00.452Z,9.18
2018-07-22T15:57:33.246Z,5.25
2018-07-22T16:00:01.604Z,6.08
2018-07-22T16:02:30.038Z,6.33
2018-07-22T16:04:58.415Z,9.38
2018-07-22T16:07:26.749Z,7.60
2018-07-22T16:09:55.158Z,6.35
2018-07-22T16:12:23.573Z,7.70
2018-07-22T16:14:52.044Z,6.47
2018-07-22T16:17:20.443Z,7.62
2018-07-22T16:19:48.883Z,7.00
2018-07-22T16:22:17.342Z,9.28
2018-07-22T16:24:45.837Z,7.67
2018-07-22T16:27:14.199Z,5.95
2018-07-22T16:29:42.780Z,5.70
2018-07-22T16:32:11.100Z,6.42
2018-07-22T16:34:39.443Z,5.75
2018-07-22T16:37:07.790Z,5.12
2018-07-22T16:39:36.273Z,7.53
2018-07-22T16:42:04.702Z,5.22
2018-07-22T16:44:33.005Z,4.37
2018-07-22T16:47:01.490Z,5.45
2018-07-22T16:49:29.832Z,6.05
2018-07-22T16:51:58.211Z,4.65
2018-07-22T16:54:26.622Z,7.20
2018-07-22T16:56:55.044Z,5.15
2018-07-22T16:59:23.386Z,4.90
2018-07-22T17:01:51.764Z,5.33
2018-07-22T17:04:20.130Z,10.93
2018-07-22T17:06:48.404Z,7.10
2018-07-22T17:09:16.816Z,6.10
2018-07-22T17:11:45.109Z,6.97
2018-07-22T17:14:13.492Z,5.03
2018-07-22T17:16:41.869Z,5.25
2018-07-22T17:19:10.294Z,9.10
2018-07-22T17:21:38.635Z,4.42
2018-07-22T17:24:07.499Z,5.45
2018-07-22T17:26:35.952Z,6.78
2018-07-22T17:29:04.618Z,6.00
2018-07-22T17:31:33.153Z,6.08
2018-07-22T17:34:01.770Z,5.83
2018-07-22T17:36:30.245Z,5.92
2018-07-22T17:38:58.679Z,5.83
2018-07-22T17:41:27.013Z,6.17
2018-07-22T17:43:55.068Z,10.00
2018-07-22T17:46:23.408Z,6.42
2018-07-22T17:48:51.801Z,6.67
2018-07-22T17:51:20.107Z,7.90
2018-07-22T17:53:48.709Z,4.40
2018-07-22T17:56:17.034Z,6.67
2018-07-22T17:58:45.509Z,6.30
2018-07-22T18:01:13.981Z,8.10
2018-07-22T18:03:42.236Z,6.78
2018-07-22T18:06:10.644Z,4.72
2018-07-22T18:08:39.153Z,4.62
2018-07-22T18:11:08.296Z,8.53
2018-07-22T18:13:37.039Z,5.10
2018-07-22T18:16:05.426Z,7.40
2018-07-22T18:18:33.720Z,7.03
2018-07-22T18:21:02.256Z,7.00
2018-07-22T18:23:30.593Z,5.83
2018-07-22T18:25:59.111Z,5.72
2018-07-22T18:28:27.418Z,5.67
2018-07-22T18:30:55.871Z,11.53
2018-07-22T18:33:24.214Z,7.90
2018-07-22T18:35:52.607Z,7.90
2018-07-22T18:38:21.060Z,12.10
2018-07-22T18:40:49.484Z,6.70
2018-07-22T18:43:18.047Z,7.87
2018-07-22T18:45:46.563Z,8.23
2018-07-22T18:48:15.125Z,6.92
2018-07-22T18:50:44.184Z,8.38
2018-07-22T18:53:12.603Z,5.30
2018-07-22T18:55:40.899Z,8.48
2018-07-22T18:58:09.235Z,5.62
2018-07-22T19:00:37.531Z,8.53
2018-07-22T19:03:06.136Z,5.60
2018-07-22T19:05:34.437Z,5.72
2018-07-22T19:08:02.755Z,6.80
2018-07-22T19:10:31.054Z,12.60
2018-07-22T19:12:59.358Z,6.45
2018-07-22T19:15:27.922Z,7.75
2018-07-22T19:17:56.212Z,7.90
2018-07-22T19:20:24.612Z,7.45
2018-07-22T19:22:53.069Z,9.05
2018-07-22T19:25:21.583Z,8.50
2018-07-22T19:27:50.268Z,10.13
2018-07-22T19:30:18.890Z,7.30
2018-07-22T19:32:47.292Z,7.95
2018-07-22T19:35:15.582Z,7.80
2018-07-22T19:37:43.939Z,7.08
2018-07-22T19:40:12.362Z,5.72
2018-07-22T19:42:40.691Z,6.90
2018-07-22T19:45:09.024Z,6.75
2018-07-22T19:47:37.522Z,9.40
2018-07-22T19:50:05.898Z,12.03
2018-07-22T19:52:34.190Z,8.68
2018-07-22T19:55:02.528Z,10.03
2018-07-22T19:57:31.267Z,7.25
2018-07-22T19:59:59.813Z,12.07
2018-07-22T20:02:28.270Z,6.17
2018-07-22T20:04:57.541Z,6.97
2018-07-22T20:07:26.326Z,6.22
2018-07-22T20:09:55.193Z,10.08
2018-07-22T20:12:23.580Z,8.63
2018-07-22T20:14:51.988Z,6.33
2018-07-22T20:17:20.375Z,7.72
2018-07-22T20:19:48.894Z,9.93
2018-07-22T20:22:17.300Z,7.53
2018-07-22T20:24:45.707Z,8.53
2018-07-22T20:27:14.103Z,6.95
2018-07-22T20:29:42.411Z,7.35
2018-07-22T20:32:11.031Z,8.00
2018-07-22T20:34:39.502Z,7.45
2018-07-22T20:37:07.882Z,8.53
2018-07-22T20:39:36.252Z,7.60
2018-07-22T20:42:04.677Z,6.87
2018-07-22T20:44:33.143Z,7.33
2018-07-22T20:47:01.913Z,7.03
2018-07-22T20:49:30.189Z,6.42
2018-07-22T20:51:58.714Z,10.72
2018-07-22T20:54:26.876Z,8.05
2018-07-22T20:56:55.357Z,9.83
2018-07-22T20:59:23.738Z,12.45
2018-07-22T21:01:52.128Z,7.12
2018-07-22T21:04:20.322Z,11.57
2018-07-22T21:06:48.767Z,9.08
2018-07-22T21:09:17.060Z,9.95
2018-07-22T21:11:56.782Z,10.98
2018-07-22T21:14:25.086Z,6.62
2018-07-22T21:16:53.530Z,11.50
2018-07-22T21:19:21.822Z,7.20
2018-07-22T21:21:50.121Z,5.75
2018-07-22T21:24:18.403Z,8.65
2018-07-22T21:26:46.759Z,7.97
2018-07-22T21:29:15.086Z,9.83
2018-07-22T21:31:43.404Z,9.88
2018-07-22T21:34:11.788Z,9.05
2018-07-22T21:36:40.168Z,10.65
2018-07-22T21:39:09.690Z,11.68
2018-07-22T21:41:38.005Z,11.68
2018-07-22T21:44:06.279Z,9.30
2018-07-22T21:46:34.595Z,10.80
2018-07-22T21:49:02.935Z,7.42
2018-07-22T21:51:31.228Z,9.13
2018-07-22T21:53:59.605Z,13.13
2018-07-22T21:56:27.879Z,10.80
2018-07-22T21:58:56.254Z,9.75
2018-07-22T22:01:24.547Z,8.93
2018-07-22T22:03:52.844Z,7.75
2018-07-22T22:06:21.279Z,19.62
2018-07-22T22:08:49.722Z,11.00
2018-07-22T22:11:18.194Z,9.28
2018-07-22T22:13:46.632Z,9.75
2018-07-22T22:16:14.935Z,9.53
2018-07-22T22:18:43.255Z,12.40
2018-07-22T22:21:11.600Z,10.48
2018-07-22T22:23:39.929Z,12.20
2018-07-22T22:26:08.266Z,9.05
2018-07-22T22:28:36.595Z,10.18
2018-07-22T22:31:04.880Z,9.50
2018-07-22T22:33:33.177Z,12.23
2018-07-22T22:36:01.518Z,8.83
2018-07-22T22:38:29.811Z,16.52
2018-07-22T22:40:58.189Z,11.63
2018-07-22T22:43:26.534Z,8.45
2018-07-22T22:45:55.008Z,10.23
2018-07-22T22:48:23.427Z,9.55
2018-07-22T22:50:51.768Z,12.50
2018-07-22T22:53:20.178Z,7.95
2018-07-22T22:55:48.500Z,8.38
2018-07-22T22:58:28.111Z,10.15
2018-07-22T23:00:56.504Z,10.58
2018-07-22T23:03:24.999Z,8.60
2018-07-22T23:05:53.374Z,9.65
2018-07-22T23:08:21.400Z,12.10
2018-07-22T23:10:49.682Z,9.68
2018-07-22T23:13:17.969Z,11.60
2018-07-22T23:15:46.333Z,11.93
2018-07-22T23:18:14.642Z,11.18
2018-07-22T23:20:42.959Z,10.32
2018-07-22T23:23:11.408Z,10.00
2018-07-22T23:25:39.731Z,11.53
2018-07-22T23:28:08.034Z,10.38
2018-07-22T23:30:36.411Z,15.55
2018-07-22T23:33:04.832Z,10.30
2018-07-22T23:35:33.193Z,10.85
2018-07-22T23:38:01.628Z,11.03
2018-07-22T23:40:29.998Z,9.90
2018-07-22T23:42:58.308Z,9.78
2018-07-22T23:45:26.639Z,13.62
2018-07-22T23:47:54.944Z,11.85
2018-07-22T23:50:23.323Z,12.07
2018-07-22T23:52:51.686Z,11.57
2018-07-22T23:55:20.053Z,14.55
2018-07-22T23:57:48.370Z,14.80
